createdAt,value
2022-12-11T00:00:12.674Z,958.3900
2022-12-11T00:01:14.972Z,958.4500
2022-12-11T00:02:17.317Z,958.4300
2022-12-11T00:03:19.671Z,958.5100
2022-12-11T00:04:19.777Z,958.5100
2022-12-11T00:05:22.086Z,958.4900
2022-12-11T00:06:24.412Z,958.4900
2022-12-11T00:07:26.741Z,958.4500
2022-12-11T00:08:29.117Z,958.4700
2022-12-11T00:09:31.365Z,958.4700
2022-12-11T00:10:36.243Z,958.4500
2022-12-11T00:11:33.765Z,958.4900
2022-12-11T00:12:36.110Z,958.4700
2022-12-11T00:13:38.423Z,958.4500
2022-12-11T00:14:40.730Z,958.4700
2022-12-11T00:15:43.047Z,958.4900
2022-12-11T00:16:43.279Z,958.4700
2022-12-11T00:17:45.468Z,958.4700
2022-12-11T00:18:47.813Z,958.4700
2022-12-11T00:19:50.110Z,958.4700
2022-12-11T00:20:52.378Z,958.4900
2022-12-11T00:21:54.626Z,958.4700
2022-12-11T00:22:56.900Z,958.4900
2022-12-11T00:23:57.066Z,958.5100
2022-12-11T00:24:57.213Z,958.5300
2022-12-11T00:25:59.523Z,958.5500
2022-12-11T00:27:01.898Z,958.5500
2022-12-11T00:28:04.271Z,958.5700
2022-12-11T00:29:04.635Z,958.5700
2022-12-11T00:30:06.892Z,958.5700
2022-12-11T00:31:09.272Z,958.5900
2022-12-11T00:32:11.659Z,958.6100
2022-12-11T00:33:11.860Z,958.6100
2022-12-11T00:34:14.189Z,958.6300
2022-12-11T00:35:16.483Z,958.6300
2022-12-11T00:36:18.812Z,958.6500
2022-12-11T00:37:21.177Z,958.6500
2022-12-11T00:38:23.448Z,958.6700
2022-12-11T00:39:23.828Z,958.6500
2022-12-11T00:40:25.997Z,958.6700
2022-12-11T00:41:28.348Z,958.6900
2022-12-11T00:42:30.673Z,958.7100
2022-12-11T00:43:32.983Z,958.6700
2022-12-11T00:44:35.267Z,958.6900
2022-12-11T00:45:35.474Z,958.6900
2022-12-11T00:46:37.744Z,958.6700
2022-12-11T00:47:40.103Z,958.6700
2022-12-11T00:48:42.442Z,958.6700
2022-12-11T00:49:49.542Z,958.6700
2022-12-11T00:50:44.990Z,958.6700
2022-12-11T00:51:47.347Z,958.6700
2022-12-11T00:52:49.695Z,958.6700
2022-12-11T00:53:52.055Z,958.6500
2022-12-11T00:54:54.413Z,958.6700
2022-12-11T00:55:54.556Z,958.6700
2022-12-11T00:56:56.898Z,958.7100
2022-12-11T00:57:59.271Z,958.7100
2022-12-11T00:59:01.632Z,958.7300
2022-12-11T01:00:03.989Z,958.7400
2022-12-11T01:01:04.696Z,958.7300
2022-12-11T01:02:06.544Z,958.7300
2022-12-11T01:03:08.936Z,958.7400
2022-12-11T01:04:11.200Z,958.7300
2022-12-11T01:05:11.855Z,958.7300
2022-12-11T01:06:13.719Z,958.7300
2022-12-11T01:07:16.048Z,958.7400
2022-12-11T01:08:18.439Z,958.7400
2022-12-11T01:09:20.697Z,958.7300
2022-12-11T01:10:23.111Z,958.7300
2022-12-11T01:11:23.180Z,958.7300
2022-12-11T01:12:25.458Z,958.7100
2022-12-11T01:13:27.760Z,958.7300
2022-12-11T01:14:30.089Z,958.7400
2022-12-11T01:15:32.534Z,958.7300
2022-12-11T01:16:34.776Z,958.7100
2022-12-11T01:17:34.949Z,958.7300
2022-12-11T01:18:37.318Z,958.6900
2022-12-11T01:19:39.671Z,958.6900
2022-12-11T01:20:42.099Z,958.7300
2022-12-11T01:21:44.412Z,958.7100
2022-12-11T01:22:44.623Z,958.7100
2022-12-11T01:23:46.969Z,958.6900
2022-12-11T01:24:49.337Z,958.7100
2022-12-11T01:25:51.707Z,958.7300
2022-12-11T01:26:53.964Z,958.7100
2022-12-11T01:27:54.148Z,958.7100
2022-12-11T01:28:56.512Z,958.7100
2022-12-11T01:29:58.871Z,958.7100
2022-12-11T01:31:01.324Z,958.7300
2022-12-11T01:32:03.658Z,958.7400
2022-12-11T01:33:03.920Z,958.7300
2022-12-11T01:34:06.289Z,958.7600
2022-12-11T01:35:09.019Z,958.8000
2022-12-11T01:36:11.203Z,958.8000
2022-12-11T01:37:11.329Z,958.8400
2022-12-11T01:39:37.711Z,958.9000
2022-12-11T01:40:40.005Z,958.9000
2022-12-11T01:41:42.376Z,958.9000
2022-12-11T01:42:44.678Z,958.9400
2022-12-11T01:43:44.814Z,958.9600
2022-12-11T01:44:47.117Z,958.9600
2022-12-11T01:45:49.501Z,958.9400
2022-12-11T01:46:51.872Z,958.9400
2022-12-11T01:47:54.063Z,958.9600
2022-12-11T01:48:56.385Z,958.9800
2022-12-11T01:49:56.547Z,958.9600
2022-12-11T01:50:58.868Z,958.9800
2022-12-11T01:52:01.196Z,958.9800
2022-12-11T01:53:03.518Z,958.9800
2022-12-11T01:54:05.861Z,959.0000
2022-12-11T01:55:08.585Z,958.9800
2022-12-11T01:56:08.305Z,959.0000
2022-12-11T01:57:10.593Z,958.9600
2022-12-11T01:58:12.894Z,959.0000
2022-12-11T01:59:15.174Z,959.0400
2022-12-11T02:00:17.463Z,959.0400
2022-12-11T02:01:19.865Z,959.0400
2022-12-11T02:02:20.114Z,959.0400
2022-12-11T02:03:22.457Z,959.0600
2022-12-11T02:04:24.838Z,959.0600
2022-12-11T02:05:27.220Z,959.1000
2022-12-11T02:06:27.461Z,959.1000
2022-12-11T02:07:29.876Z,959.1200
2022-12-11T02:08:32.203Z,959.1300
2022-12-11T02:09:34.567Z,959.1300
2022-12-11T02:10:36.907Z,959.1500
2022-12-11T02:11:37.037Z,959.1700
2022-12-11T02:12:39.416Z,959.1900
2022-12-11T02:13:41.731Z,959.1700
2022-12-11T02:14:44.011Z,959.2100
2022-12-11T02:15:46.320Z,959.2100
2022-12-11T02:16:46.568Z,959.2100
2022-12-11T02:17:49.023Z,959.1900
2022-12-11T02:18:51.247Z,959.2100
2022-12-11T02:19:53.545Z,959.2100
2022-12-11T02:20:55.842Z,959.2300
2022-12-11T02:21:56.039Z,959.2300
2022-12-11T02:22:58.371Z,959.2300
2022-12-11T02:24:00.650Z,959.2100
2022-12-11T02:25:02.990Z,959.1900
2022-12-11T02:26:05.308Z,959.1700
2022-12-11T02:27:07.676Z,959.1500
2022-12-11T02:28:07.912Z,959.1900
2022-12-11T02:29:10.273Z,959.1700
2022-12-11T02:30:12.609Z,959.1500
2022-12-11T02:31:15.064Z,959.1900
2022-12-11T02:32:17.301Z,959.1700
2022-12-11T02:33:17.567Z,959.1900
2022-12-11T02:34:19.745Z,959.1500
2022-12-11T02:35:22.105Z,959.1700
2022-12-11T02:36:24.456Z,959.1500
2022-12-11T02:37:26.822Z,959.1300
2022-12-11T02:38:27.064Z,959.1200
2022-12-11T02:39:29.370Z,959.1200
2022-12-11T02:40:31.706Z,959.1200
2022-12-11T02:41:34.058Z,959.1200
2022-12-11T02:42:36.401Z,959.1300
2022-12-11T02:43:36.602Z,959.1300
2022-12-11T02:44:38.856Z,959.1500
2022-12-11T02:45:41.146Z,959.1200
2022-12-11T02:46:43.465Z,959.1200
2022-12-11T02:47:44.656Z,959.1000
2022-12-11T02:48:47.061Z,959.0800
2022-12-11T02:49:49.251Z,959.1000
2022-12-11T02:50:51.599Z,959.1000
2022-12-11T02:51:53.921Z,959.1000
2022-12-11T02:52:56.253Z,959.1000
2022-12-11T02:53:58.631Z,959.1200
2022-12-11T02:55:00.956Z,959.1000
2022-12-11T02:56:03.310Z,959.1000
2022-12-11T02:57:03.473Z,959.0600
2022-12-11T02:58:05.820Z,959.0800
2022-12-11T02:59:08.191Z,959.0200
2022-12-11T03:00:10.545Z,959.0200
2022-12-11T03:01:12.971Z,959.0400
2022-12-11T03:02:15.350Z,959.0400
2022-12-11T03:03:15.523Z,959.0400
2022-12-11T03:04:17.992Z,959.0600
2022-12-11T03:05:20.352Z,959.0600
2022-12-11T03:06:22.773Z,959.0600
2022-12-11T03:07:25.160Z,959.0600
2022-12-11T03:08:25.512Z,959.0800
2022-12-11T03:09:27.857Z,959.0600
2022-12-11T03:10:30.221Z,959.0800
2022-12-11T03:11:30.427Z,959.0600
2022-12-11T03:12:32.821Z,959.0800
2022-12-11T03:13:35.163Z,959.1000
2022-12-11T03:14:35.412Z,959.1000
2022-12-11T03:15:37.781Z,959.1200
2022-12-11T03:16:40.172Z,959.1500
2022-12-11T03:17:40.335Z,959.1700
2022-12-11T03:18:42.706Z,959.1700
2022-12-11T03:19:45.054Z,959.1900
2022-12-11T03:20:45.235Z,959.2300
2022-12-11T03:21:47.583Z,959.2500
2022-12-11T03:22:49.894Z,959.2300
2022-12-11T03:23:50.074Z,959.2100
2022-12-11T03:24:52.456Z,959.1900
2022-12-11T03:25:54.797Z,959.1900
2022-12-11T03:26:58.452Z,959.1900
2022-12-11T03:27:59.502Z,959.1700
2022-12-11T03:29:01.854Z,959.1500
2022-12-11T03:30:02.054Z,959.1500
2022-12-11T03:31:04.549Z,959.1200
2022-12-11T03:32:06.713Z,959.1300
2022-12-11T03:33:09.082Z,959.1300
2022-12-11T03:34:11.401Z,959.1200
2022-12-11T03:35:14.160Z,959.1200
2022-12-11T03:36:13.951Z,959.1200
2022-12-11T03:37:16.314Z,959.1200
2022-12-11T03:38:18.666Z,959.1500
2022-12-11T03:39:18.889Z,959.1500
2022-12-11T03:40:21.379Z,959.1300
2022-12-11T03:41:23.629Z,959.1500
2022-12-11T03:42:25.964Z,959.1300
2022-12-11T03:43:28.329Z,959.1000
2022-12-11T03:44:30.678Z,959.1200
2022-12-11T03:45:30.967Z,959.1200
2022-12-11T03:46:33.368Z,959.1200
2022-12-11T03:47:35.715Z,959.1200
2022-12-11T03:48:35.962Z,959.1700
2022-12-11T03:49:38.353Z,959.2300
2022-12-11T03:50:40.841Z,959.2700
2022-12-11T03:51:40.965Z,959.3700
2022-12-11T03:52:45.941Z,959.3900
2022-12-11T03:53:45.818Z,959.4100
2022-12-11T03:54:48.246Z,959.4100
2022-12-11T03:55:50.657Z,959.4500
2022-12-11T03:56:50.870Z,959.4300
2022-12-11T03:57:53.281Z,959.4500
2022-12-11T03:58:55.720Z,959.4100
2022-12-11T03:59:58.122Z,959.4500
2022-12-11T04:01:00.644Z,959.4300
2022-12-11T04:02:00.879Z,959.4900
2022-12-11T04:03:06.895Z,959.5100
2022-12-11T04:04:05.689Z,959.4500
2022-12-11T04:05:08.319Z,959.5100
2022-12-11T04:06:10.513Z,959.4700
2022-12-11T04:07:10.731Z,959.4900
2022-12-11T04:08:13.271Z,959.4900
2022-12-11T04:09:15.549Z,959.4900
2022-12-11T04:10:17.958Z,959.4900
2022-12-11T04:11:20.348Z,959.4900
2022-12-11T04:12:20.535Z,959.4900
2022-12-11T04:13:22.934Z,959.5100
2022-12-11T04:14:25.336Z,959.5100
2022-12-11T04:15:25.588Z,959.5300
2022-12-11T04:16:28.018Z,959.5500
2022-12-11T04:17:30.391Z,959.5500
2022-12-11T04:18:30.621Z,959.5300
2022-12-11T04:19:33.027Z,959.4900
2022-12-11T04:20:35.405Z,959.4700
2022-12-11T04:21:39.627Z,959.4300
2022-12-11T04:22:40.194Z,959.3700
2022-12-11T04:23:40.430Z,959.3700
2022-12-11T04:24:42.835Z,959.3500
2022-12-11T04:25:45.225Z,959.3500
2022-12-11T04:26:45.492Z,959.3500
2022-12-11T04:27:47.867Z,959.2700
2022-12-11T04:28:50.286Z,959.3500
2022-12-11T04:29:52.660Z,959.2300
2022-12-11T04:30:55.140Z,959.2300
2022-12-11T04:31:55.444Z,959.2500
2022-12-11T04:32:57.723Z,959.2300
2022-12-11T04:34:00.108Z,959.2500
2022-12-11T04:35:00.389Z,959.2300
2022-12-11T04:36:02.791Z,959.2500
2022-12-11T04:37:05.239Z,959.3500
2022-12-11T04:38:07.591Z,959.3500
2022-12-11T04:39:09.996Z,959.3500
2022-12-11T04:40:10.206Z,959.2500
2022-12-11T04:41:12.570Z,959.2300
2022-12-11T04:42:14.919Z,959.2300
2022-12-11T04:43:15.169Z,959.2300
2022-12-11T04:44:17.578Z,959.2300
2022-12-11T04:45:19.965Z,959.2500
2022-12-11T04:46:20.248Z,959.2700
2022-12-11T04:47:22.595Z,959.2700
2022-12-11T04:48:25.000Z,959.2500
2022-12-11T04:49:27.353Z,959.2700
2022-12-11T04:50:29.752Z,959.2700
2022-12-11T04:51:30.025Z,959.2300
2022-12-11T04:52:32.472Z,959.2100
2022-12-11T04:53:34.888Z,959.2500
2022-12-11T04:54:35.168Z,959.1900
2022-12-11T04:55:37.562Z,959.1700
2022-12-11T04:56:37.877Z,959.1900
2022-12-11T04:57:40.353Z,959.1900
2022-12-11T04:58:42.787Z,959.1900
2022-12-11T04:59:43.078Z,959.1900
2022-12-11T05:00:45.497Z,959.1900
2022-12-11T05:01:48.035Z,959.1900
2022-12-11T05:02:50.478Z,959.1900
2022-12-11T05:03:52.791Z,959.1900
2022-12-11T05:04:53.001Z,959.2100
2022-12-11T05:05:55.406Z,959.1900
2022-12-11T05:06:57.825Z,959.1900
2022-12-11T05:08:00.298Z,959.1900
2022-12-11T05:09:02.584Z,959.1700
2022-12-11T05:10:02.827Z,959.1500
2022-12-11T05:11:05.182Z,959.1700
2022-12-11T05:12:07.577Z,959.1500
2022-12-11T05:13:07.859Z,959.1300
2022-12-11T05:14:10.215Z,959.1500
2022-12-11T05:15:12.916Z,959.1200
2022-12-11T05:16:12.876Z,959.1300
2022-12-11T05:17:15.231Z,959.1500
2022-12-11T05:18:17.660Z,959.1300
2022-12-11T05:19:20.121Z,959.1200
2022-12-11T05:20:22.402Z,959.1200
2022-12-11T05:21:22.639Z,959.1000
2022-12-11T05:22:24.975Z,959.1000
2022-12-11T05:23:27.367Z,959.1200
2022-12-11T05:24:27.564Z,959.0800
2022-12-11T05:25:29.947Z,959.1200
2022-12-11T05:26:32.327Z,959.1200
2022-12-11T05:27:32.535Z,959.1000
2022-12-11T05:28:34.870Z,959.1200
2022-12-11T05:29:37.219Z,959.1200
2022-12-11T05:30:39.568Z,959.1300
2022-12-11T05:31:42.015Z,959.1300
2022-12-11T05:32:44.356Z,959.1500
2022-12-11T05:33:44.631Z,959.1700
2022-12-11T05:34:47.041Z,959.1500
2022-12-11T05:35:49.416Z,959.1500
2022-12-11T05:36:51.809Z,959.1500
2022-12-11T05:37:54.203Z,959.1700
2022-12-11T05:38:54.464Z,959.1700
2022-12-11T05:39:56.837Z,959.1900
2022-12-11T05:40:59.230Z,959.1700
2022-12-11T05:41:59.501Z,959.1700
2022-12-11T05:43:01.893Z,959.1700
2022-12-11T05:44:04.336Z,959.1700
2022-12-11T05:45:06.688Z,959.1700
2022-12-11T05:46:09.210Z,959.1700
2022-12-11T05:47:09.333Z,959.1700
2022-12-11T05:48:11.724Z,959.1700
2022-12-11T05:49:14.112Z,959.1700
2022-12-11T05:50:14.374Z,959.1700
2022-12-11T05:51:16.741Z,959.1900
2022-12-11T05:52:19.110Z,959.1900
2022-12-11T05:53:19.332Z,959.2100
2022-12-11T05:54:21.824Z,959.2100
2022-12-11T05:55:24.129Z,959.2300
2022-12-11T05:56:26.533Z,959.2100
2022-12-11T05:57:28.911Z,959.1900
2022-12-11T05:58:29.165Z,959.2700
2022-12-11T05:59:31.613Z,959.2500
2022-12-11T06:00:36.190Z,959.2700
2022-12-11T06:01:34.334Z,959.3500
2022-12-11T06:02:37.305Z,959.2700
2022-12-11T06:03:39.172Z,959.2700
2022-12-11T06:04:41.646Z,959.2500
2022-12-11T06:05:44.113Z,959.2500
2022-12-11T06:06:46.555Z,959.2500
2022-12-11T06:07:49.034Z,959.3500
2022-12-11T06:08:51.490Z,959.3500
2022-12-11T06:09:53.996Z,959.2700
2022-12-11T06:10:56.412Z,959.3500
2022-12-11T06:11:58.876Z,959.2700
2022-12-11T06:12:59.196Z,959.2700
2022-12-11T06:14:01.648Z,959.2700
2022-12-11T06:15:02.014Z,959.2700
2022-12-11T06:16:04.513Z,959.3500
2022-12-11T06:17:06.817Z,959.2700
2022-12-11T06:18:07.085Z,959.2700
2022-12-11T06:19:09.501Z,959.2700
2022-12-11T06:20:11.959Z,959.2500
2022-12-11T06:21:14.382Z,959.2300
2022-12-11T06:22:16.815Z,959.2300
2022-12-11T06:23:19.273Z,959.2100
2022-12-11T06:24:21.706Z,959.1900
2022-12-11T06:25:22.017Z,959.1900
2022-12-11T06:26:24.424Z,959.1900
2022-12-11T06:27:26.830Z,959.1900
2022-12-11T06:28:29.279Z,959.1900
2022-12-11T06:29:31.736Z,959.1700
2022-12-11T06:30:38.672Z,959.1700
2022-12-11T06:31:36.630Z,959.1500
2022-12-11T06:32:36.784Z,959.1700
2022-12-11T06:33:39.187Z,959.1500
2022-12-11T06:34:41.572Z,959.1500
2022-12-11T06:35:42.572Z,959.1500
2022-12-11T06:36:44.280Z,959.1500
2022-12-11T06:37:46.614Z,959.1200
2022-12-11T06:38:48.997Z,959.1200
2022-12-11T06:39:51.393Z,959.1200
2022-12-11T06:40:51.663Z,959.1200
2022-12-11T06:41:54.046Z,959.1300
2022-12-11T06:42:56.392Z,959.1300
2022-12-11T06:43:56.613Z,959.1500
2022-12-11T06:44:59.005Z,959.1500
2022-12-11T06:46:03.999Z,959.1700
2022-12-11T06:47:01.683Z,959.1700
2022-12-11T06:48:04.093Z,959.1900
2022-12-11T06:49:06.419Z,959.2100
2022-12-11T06:50:08.747Z,959.2100
2022-12-11T06:51:11.154Z,959.1700
2022-12-11T06:52:18.182Z,959.1700
2022-12-11T06:53:15.849Z,959.1700
2022-12-11T06:54:18.215Z,959.1700
2022-12-11T06:55:18.403Z,959.1900
2022-12-11T06:56:20.790Z,959.2100
2022-12-11T06:57:23.128Z,959.2100
2022-12-11T06:58:23.360Z,959.2300
2022-12-11T06:59:25.753Z,959.2100
2022-12-11T07:00:28.076Z,959.2100
2022-12-11T07:01:28.380Z,959.1900
2022-12-11T07:02:30.721Z,959.1700
2022-12-11T07:03:33.052Z,959.1900
2022-12-11T07:04:33.310Z,959.2100
2022-12-11T07:05:35.669Z,959.2300
2022-12-11T07:06:38.086Z,959.2300
2022-12-11T07:07:38.264Z,959.2300
2022-12-11T07:08:40.584Z,959.2500
2022-12-11T07:09:42.902Z,959.3500
2022-12-11T07:10:45.279Z,959.3700
2022-12-11T07:11:47.614Z,959.3700
2022-12-11T07:12:49.944Z,959.3900
2022-12-11T07:13:52.228Z,959.3700
2022-12-11T07:14:54.542Z,959.3700
2022-12-11T07:15:56.897Z,959.3700
2022-12-11T07:16:57.205Z,959.3700
2022-12-11T07:17:59.414Z,959.2700
2022-12-11T07:19:01.746Z,959.3700
2022-12-11T07:20:04.102Z,959.3700
2022-12-11T07:21:06.437Z,959.3700
2022-12-11T07:22:08.815Z,959.3700
2022-12-11T07:23:09.050Z,959.2500
2022-12-11T07:24:11.398Z,959.3500
2022-12-11T07:25:13.960Z,959.3700
2022-12-11T07:26:16.061Z,959.3900
2022-12-11T07:27:18.439Z,959.3900
2022-12-11T07:28:20.783Z,959.4100
2022-12-11T07:29:21.006Z,959.4500
2022-12-11T07:30:23.368Z,959.4500
2022-12-11T07:31:25.790Z,959.4900
2022-12-11T07:32:26.153Z,959.4700
2022-12-11T07:33:28.292Z,959.4700
2022-12-11T07:34:30.584Z,959.4500
2022-12-11T07:35:32.946Z,959.4500
2022-12-11T07:36:35.295Z,959.4300
2022-12-11T07:37:37.637Z,959.4300
2022-12-11T07:38:39.942Z,959.4100
2022-12-11T07:40:31.813Z,959.4300
2022-12-11T07:41:34.117Z,959.4300
2022-12-11T07:42:34.308Z,959.4100
2022-12-11T07:43:35.548Z,959.3900
2022-12-11T07:43:36.688Z,959.3900
2022-12-11T07:45:37.160Z,959.3700
2022-12-11T07:46:37.328Z,959.3700
2022-12-11T07:47:38.539Z,959.3900
2022-12-11T07:48:39.943Z,959.3700
2022-12-11T07:49:42.293Z,959.3700
2022-12-11T07:50:42.465Z,959.3500
2022-12-11T07:51:44.833Z,959.3700
2022-12-11T07:52:47.211Z,959.3900
2022-12-11T07:53:49.633Z,959.3500
2022-12-11T07:54:51.977Z,959.2700
2022-12-11T07:55:52.174Z,959.2700
2022-12-11T07:56:54.555Z,959.2700
2022-12-11T07:57:56.855Z,959.2700
2022-12-11T07:58:59.219Z,959.3500
2022-12-11T08:00:01.525Z,959.2700
2022-12-11T08:01:01.765Z,959.3500
2022-12-11T08:02:04.121Z,959.3500
2022-12-11T08:03:38.935Z,959.3500
2022-12-11T08:04:41.259Z,959.3700
2022-12-11T08:05:41.291Z,959.3500
2022-12-11T08:06:42.457Z,959.3700
2022-12-11T08:07:43.866Z,959.3900
2022-12-11T08:08:47.316Z,959.3900
2022-12-11T08:09:48.416Z,959.3500
2022-12-11T08:10:48.522Z,959.3900
2022-12-11T08:11:50.832Z,959.3500
2022-12-11T08:13:23.831Z,959.2700
2022-12-11T08:14:25.691Z,959.2700
2022-12-11T08:15:28.031Z,959.2500
2022-12-11T08:16:30.398Z,959.2700
2022-12-11T08:17:35.158Z,959.2500
2022-12-11T08:18:32.909Z,959.2500
2022-12-11T08:19:35.195Z,959.2300
2022-12-11T08:20:37.589Z,959.2500
2022-12-11T08:21:39.892Z,959.2500
2022-12-11T08:22:40.120Z,959.2700
2022-12-11T08:23:42.502Z,959.3500
2022-12-11T08:24:44.898Z,959.2700
2022-12-11T08:25:47.277Z,959.3700
2022-12-11T08:26:47.415Z,959.3900
2022-12-11T08:27:49.784Z,959.4100
2022-12-11T08:28:52.067Z,959.3900
2022-12-11T08:29:54.419Z,959.4100
2022-12-11T08:30:56.871Z,959.3900
2022-12-11T08:31:59.153Z,959.4100
2022-12-11T08:32:59.447Z,959.4100
2022-12-11T08:34:01.848Z,959.4100
2022-12-11T08:35:04.200Z,959.3900
2022-12-11T08:36:06.608Z,959.4100
2022-12-11T08:37:06.795Z,959.4100
2022-12-11T08:38:09.203Z,959.4100
2022-12-11T08:39:11.548Z,959.3900
2022-12-11T08:40:13.965Z,959.3900
2022-12-11T08:41:16.605Z,959.3900
2022-12-11T08:42:16.610Z,959.3700
2022-12-11T08:43:19.016Z,959.3700
2022-12-11T08:44:21.368Z,959.3900
2022-12-11T08:45:21.623Z,959.3700
2022-12-11T08:46:24.057Z,959.3900
2022-12-11T08:47:26.346Z,959.3700
2022-12-11T08:48:28.698Z,959.3700
2022-12-11T08:49:34.368Z,959.3900
2022-12-11T08:50:33.496Z,959.3700
2022-12-11T08:51:35.957Z,959.3900
2022-12-11T08:52:38.413Z,959.3700
2022-12-11T08:53:40.742Z,959.3700
2022-12-11T08:54:42.007Z,959.3700
2022-12-11T16:28:18.232Z,958.1600
2022-12-11T16:29:20.383Z,958.1400
2022-12-11T16:30:22.622Z,958.1200
2022-12-11T16:31:24.963Z,958.1600
2022-12-11T16:32:27.107Z,958.1600
2022-12-11T16:33:29.405Z,958.1400
2022-12-11T16:34:31.692Z,958.1400
2022-12-11T16:35:33.982Z,958.1200
2022-12-11T16:36:34.153Z,958.1600
2022-12-11T16:37:36.455Z,958.1400
2022-12-11T16:38:39.471Z,958.1400
2022-12-11T16:39:41.049Z,958.1200
2022-12-11T16:40:43.364Z,958.1200
2022-12-11T16:41:43.519Z,958.1200
2022-12-11T16:42:45.853Z,958.1200
2022-12-11T16:43:48.272Z,958.1000
2022-12-11T16:44:50.573Z,958.1000
2022-12-11T16:45:50.739Z,958.1200
2022-12-11T16:46:53.026Z,958.1000
2022-12-11T16:47:55.299Z,958.1000
2022-12-11T16:48:57.588Z,958.0800
2022-12-11T16:49:59.889Z,958.0800
2022-12-11T16:51:02.215Z,958.0600
2022-12-11T16:52:04.498Z,958.0800
2022-12-11T16:53:04.791Z,958.0800
2022-12-11T16:54:07.099Z,958.0400
2022-12-11T16:55:09.563Z,958.0600
2022-12-11T16:56:11.748Z,958.0400
2022-12-11T16:57:14.112Z,958.0600
2022-12-11T16:58:14.301Z,958.0400
2022-12-11T16:59:16.723Z,958.0600
2022-12-11T17:00:19.005Z,958.0800
2022-12-11T17:01:21.385Z,958.0800
2022-12-11T17:02:23.740Z,958.0600
2022-12-11T17:03:23.889Z,958.0200
2022-12-11T17:04:26.241Z,958.0400
2022-12-11T17:05:28.451Z,958.0200
2022-12-11T17:06:30.732Z,958.0200
2022-12-11T17:07:32.979Z,957.9800
2022-12-11T17:08:35.264Z,957.9600
2022-12-11T17:09:35.430Z,958.0000
2022-12-11T17:10:37.674Z,957.9400
2022-12-11T17:11:39.967Z,957.9400
2022-12-11T17:12:42.262Z,957.9400
2022-12-11T17:13:44.590Z,957.9000
2022-12-11T17:14:46.943Z,957.9000
2022-12-11T17:15:49.307Z,957.9000
2022-12-11T17:16:49.420Z,957.8800
2022-12-11T17:17:51.740Z,957.9000
2022-12-11T17:18:54.036Z,957.8800
2022-12-11T17:19:56.374Z,957.9000
2022-12-11T17:20:58.634Z,957.8800
2022-12-11T17:22:00.938Z,957.8800
2022-12-11T17:23:01.092Z,957.8600
2022-12-11T17:24:03.400Z,957.8400
2022-12-11T17:25:05.702Z,957.8200
2022-12-11T17:26:07.964Z,957.8200
2022-12-11T17:27:10.270Z,957.8000
2022-12-11T17:28:12.599Z,957.8200
2022-12-11T17:29:12.742Z,957.8200
2022-12-11T17:30:15.089Z,957.7900
2022-12-11T17:31:17.451Z,957.7700
2022-12-11T17:32:19.705Z,957.7900
2022-12-11T17:33:22.027Z,957.8000
2022-12-11T17:34:24.343Z,957.7900
2022-12-11T17:35:24.561Z,957.7900
2022-12-11T17:36:26.791Z,957.8000
2022-12-11T17:37:31.247Z,957.8000
2022-12-11T17:37:39.856Z,957.8000
2022-12-11T17:38:42.095Z,957.8200
2022-12-11T17:39:44.377Z,957.7900
2022-12-11T17:40:44.541Z,957.8000
2022-12-11T17:41:46.752Z,957.7900
2022-12-11T17:42:48.989Z,957.8000
2022-12-11T17:43:40.548Z,957.8000
2022-12-11T17:44:42.793Z,957.7900
2022-12-11T17:45:45.061Z,957.8000
2022-12-11T17:46:47.349Z,957.7900
2022-12-11T17:47:49.577Z,957.8000
2022-12-11T17:48:49.714Z,957.7900
2022-12-11T17:49:52.016Z,957.7900
2022-12-11T17:50:54.309Z,957.7900
2022-12-11T17:51:56.626Z,957.7900
2022-12-11T17:52:58.842Z,957.7900
2022-12-11T17:54:01.155Z,957.7900
2022-12-11T17:55:03.475Z,957.7700
2022-12-11T17:56:03.730Z,957.8200
2022-12-11T17:57:05.958Z,957.8000
2022-12-11T17:58:08.245Z,957.8000
2022-12-11T17:59:10.546Z,957.8000
2022-12-11T18:00:12.852Z,957.8200
2022-12-11T18:01:15.232Z,957.8400
2022-12-11T18:02:17.515Z,957.8200
2022-12-11T18:03:17.543Z,957.8600
2022-12-11T18:04:19.725Z,957.8600
2022-12-11T18:05:22.007Z,957.8400
2022-12-11T18:06:24.305Z,957.8600
2022-12-11T18:07:26.657Z,957.8800
2022-12-11T18:08:28.987Z,957.8600
2022-12-11T18:10:37.928Z,957.8600
2022-12-11T18:11:40.140Z,957.8400
2022-12-11T18:12:40.340Z,957.8400
2022-12-11T18:13:42.637Z,957.8400
2022-12-11T18:14:44.980Z,957.8400
2022-12-11T18:15:47.358Z,957.8400
2022-12-11T18:16:49.663Z,957.8000
2022-12-11T18:17:51.988Z,957.8200
2022-12-11T18:18:52.161Z,957.8000
2022-12-11T18:19:54.599Z,957.8200
2022-12-11T18:20:56.650Z,957.8200
2022-12-11T18:21:58.913Z,957.8000
2022-12-11T18:22:59.097Z,957.8000
2022-12-11T18:23:59.291Z,957.8000
2022-12-11T18:25:05.048Z,957.8000
2022-12-11T18:26:03.910Z,957.7900
2022-12-11T18:27:06.234Z,957.7900
2022-12-11T18:28:08.521Z,957.7900
2022-12-11T18:29:10.842Z,957.7900
2022-12-11T18:30:11.018Z,957.7500
2022-12-11T18:31:13.436Z,957.7700
2022-12-11T18:32:15.721Z,957.7700
2022-12-11T18:33:18.052Z,957.7500
2022-12-11T18:34:20.369Z,957.7300
2022-12-11T18:35:22.689Z,957.7300
2022-12-11T18:36:22.819Z,957.7500
2022-12-11T18:37:28.162Z,957.7700
2022-12-11T18:38:27.478Z,957.7700
2022-12-11T18:39:29.810Z,957.7500
2022-12-11T18:40:32.124Z,957.7700
2022-12-11T18:41:34.484Z,957.7700
2022-12-11T18:42:34.693Z,957.7700
2022-12-11T18:43:37.067Z,957.7900
2022-12-11T18:44:39.408Z,957.7900
2022-12-11T18:45:41.757Z,957.7900
2022-12-11T18:46:44.184Z,957.7700
2022-12-11T18:47:44.281Z,957.8000
2022-12-11T18:48:46.690Z,957.8000
2022-12-11T18:49:48.913Z,957.8000
2022-12-11T18:50:51.207Z,957.8000
2022-12-11T18:51:53.511Z,957.8000
2022-12-11T18:52:53.675Z,957.8200
2022-12-11T18:53:56.012Z,957.8600
2022-12-11T18:54:58.285Z,957.8400
2022-12-11T18:56:00.908Z,957.8800
2022-12-11T18:57:02.832Z,957.8600
2022-12-11T18:58:05.130Z,957.8800
2022-12-11T18:59:05.305Z,957.9000
2022-12-11T19:00:07.675Z,957.9000
2022-12-11T19:01:09.957Z,957.9200
2022-12-11T19:02:12.288Z,957.9200
2022-12-11T19:03:14.485Z,957.9000
2022-12-11T19:04:16.842Z,957.9200
2022-12-11T19:05:19.076Z,957.9400
2022-12-11T19:06:19.195Z,957.9200
2022-12-11T19:07:21.513Z,957.9200
2022-12-11T19:08:23.864Z,957.9200
2022-12-11T19:09:26.144Z,957.9000
2022-12-11T19:10:28.423Z,957.9000
2022-12-11T19:11:30.702Z,957.9000
2022-12-11T19:12:32.989Z,957.9000
2022-12-11T19:13:33.147Z,957.9000
2022-12-11T19:14:35.462Z,957.9000
2022-12-11T19:15:37.762Z,957.9000
2022-12-11T19:16:40.197Z,957.8800
2022-12-11T19:17:42.345Z,957.8800
2022-12-11T19:18:44.635Z,957.8800
2022-12-11T19:19:44.833Z,957.9000
2022-12-11T19:20:50.922Z,957.8800
2022-12-11T19:21:47.205Z,957.9000
2022-12-11T19:22:49.510Z,957.9000
2022-12-11T19:23:51.835Z,957.9000
2022-12-11T19:24:52.040Z,957.9200
2022-12-11T19:25:54.332Z,957.9000
2022-12-11T19:26:56.672Z,957.8800
2022-12-11T19:27:58.994Z,957.8800
2022-12-11T19:29:01.365Z,957.9000
2022-12-11T19:30:01.611Z,957.9000
2022-12-11T19:31:04.074Z,957.8800
2022-12-11T19:32:06.253Z,957.9000
2022-12-11T19:33:08.576Z,957.9000
2022-12-11T19:34:10.926Z,957.9000
2022-12-11T19:35:11.614Z,957.9200
2022-12-11T19:36:13.465Z,957.9000
2022-12-11T19:37:15.846Z,957.8800
2022-12-11T19:38:18.202Z,957.8800
2022-12-11T19:39:18.402Z,957.9000
2022-12-11T19:40:20.806Z,957.9200
2022-12-11T19:41:23.118Z,957.9200
2022-12-11T19:42:25.421Z,957.9400